sensor_id;sensor_type;location;lat;lon;timestamp;P1;durP1;ratioP1;P2;durP2;ratioP2
21266;SDS011;10791;53.108;18.326;2022-10-16T00:04:49;42.03;;;30.47;;
21266;SDS011;10791;53.108;18.326;2022-10-16T00:09:52;43.70;;;30.53;;
21266;SDS011;10791;53.108;18.326;2022-10-16T00:14:55;48.03;;;31.43;;
21266;SDS011;10791;53.108;18.326;2022-10-16T00:19:58;45.13;;;30.53;;
21266;SDS011;10791;53.108;18.326;2022-10-16T00:25:01;42.90;;;29.60;;
21266;SDS011;10791;53.108;18.326;2022-10-16T00:30:04;44.43;;;29.43;;
21266;SDS011;10791;53.108;18.326;2022-10-16T00:35:10;42.97;;;30.00;;
21266;SDS011;10791;53.108;18.326;2022-10-16T00:40:13;44.33;;;29.40;;
21266;SDS011;10791;53.108;18.326;2022-10-16T00:45:16;43.30;;;29.00;;
21266;SDS011;10791;53.108;18.326;2022-10-16T00:55:30;45.67;;;30.50;;
21266;SDS011;10791;53.108;18.326;2022-10-16T01:00:33;49.97;;;29.80;;
21266;SDS011;10791;53.108;18.326;2022-10-16T01:05:43;45.90;;;31.17;;
21266;SDS011;10791;53.108;18.326;2022-10-16T01:10:57;47.73;;;30.27;;
21266;SDS011;10791;53.108;18.326;2022-10-16T01:16:06;50.33;;;32.90;;
21266;SDS011;10791;53.108;18.326;2022-10-16T01:21:31;50.27;;;32.57;;
21266;SDS011;10791;53.108;18.326;2022-10-16T01:32:05;52.17;;;34.53;;
21266;SDS011;10791;53.108;18.326;2022-10-16T01:38:07;56.10;;;35.70;;
21266;SDS011;10791;53.108;18.326;2022-10-16T01:43:14;52.90;;;33.20;;
21266;SDS011;10791;53.108;18.326;2022-10-16T01:48:21;51.80;;;33.00;;
21266;SDS011;10791;53.108;18.326;2022-10-16T01:53:26;60.47;;;36.67;;
21266;SDS011;10791;53.108;18.326;2022-10-16T01:58:29;50.80;;;32.40;;
21266;SDS011;10791;53.108;18.326;2022-10-16T02:03:37;58.37;;;35.63;;
21266;SDS011;10791;53.108;18.326;2022-10-16T02:08:42;51.13;;;33.87;;
21266;SDS011;10791;53.108;18.326;2022-10-16T02:13:46;55.33;;;33.87;;
21266;SDS011;10791;53.108;18.326;2022-10-16T02:18:55;56.60;;;35.40;;
21266;SDS011;10791;53.108;18.326;2022-10-16T02:29:23;51.10;;;33.40;;
21266;SDS011;10791;53.108;18.326;2022-10-16T02:34:29;51.27;;;32.90;;
21266;SDS011;10791;53.108;18.326;2022-10-16T02:39:34;51.37;;;32.33;;
21266;SDS011;10791;53.108;18.326;2022-10-16T02:44:38;52.00;;;33.20;;
21266;SDS011;10791;53.108;18.326;2022-10-16T02:49:41;50.43;;;32.43;;
21266;SDS011;10791;53.108;18.326;2022-10-16T02:54:44;48.47;;;31.23;;
21266;SDS011;10791;53.108;18.326;2022-10-16T02:59:47;50.30;;;33.57;;
21266;SDS011;10791;53.108;18.326;2022-10-16T03:04:51;49.30;;;30.33;;
21266;SDS011;10791;53.108;18.326;2022-10-16T03:09:54;52.50;;;33.07;;
21266;SDS011;10791;53.108;18.326;2022-10-16T03:14:58;51.07;;;34.83;;
21266;SDS011;10791;53.108;18.326;2022-10-16T03:20:01;55.27;;;34.27;;
21266;SDS011;10791;53.108;18.326;2022-10-16T03:25:05;53.70;;;33.47;;
21266;SDS011;10791;53.108;18.326;2022-10-16T03:30:09;51.00;;;33.73;;
21266;SDS011;10791;53.108;18.326;2022-10-16T03:35:12;49.23;;;32.47;;
21266;SDS011;10791;53.108;18.326;2022-10-16T03:40:15;47.03;;;30.57;;
21266;SDS011;10791;53.108;18.326;2022-10-16T03:45:19;49.03;;;31.70;;
21266;SDS011;10791;53.108;18.326;2022-10-16T03:50:22;50.87;;;33.13;;
21266;SDS011;10791;53.108;18.326;2022-10-16T03:55:25;46.93;;;31.40;;
21266;SDS011;10791;53.108;18.326;2022-10-16T04:00:28;47.73;;;29.80;;
21266;SDS011;10791;53.108;18.326;2022-10-16T04:05:31;46.13;;;30.63;;
21266;SDS011;10791;53.108;18.326;2022-10-16T04:10:34;46.57;;;30.17;;
21266;SDS011;10791;53.108;18.326;2022-10-16T04:15:38;49.70;;;31.17;;
21266;SDS011;10791;53.108;18.326;2022-10-16T04:20:41;53.07;;;30.30;;
21266;SDS011;10791;53.108;18.326;2022-10-16T04:25:44;51.90;;;30.60;;
21266;SDS011;10791;53.108;18.326;2022-10-16T04:30:48;47.50;;;29.67;;
21266;SDS011;10791;53.108;18.326;2022-10-16T04:35:58;44.03;;;29.73;;
21266;SDS011;10791;53.108;18.326;2022-10-16T04:41:02;41.97;;;29.47;;
21266;SDS011;10791;53.108;18.326;2022-10-16T04:46:06;44.80;;;29.27;;
21266;SDS011;10791;53.108;18.326;2022-10-16T04:51:10;46.07;;;29.43;;
21266;SDS011;10791;53.108;18.326;2022-10-16T04:56:13;43.27;;;28.27;;
21266;SDS011;10791;53.108;18.326;2022-10-16T05:01:17;46.00;;;29.33;;
21266;SDS011;10791;53.108;18.326;2022-10-16T05:06:21;46.47;;;29.17;;
21266;SDS011;10791;53.108;18.326;2022-10-16T05:11:24;39.70;;;28.20;;
21266;SDS011;10791;53.108;18.326;2022-10-16T05:16:28;46.63;;;29.87;;
21266;SDS011;10791;53.108;18.326;2022-10-16T05:21:31;46.33;;;28.53;;
21266;SDS011;10791;53.108;18.326;2022-10-16T05:26:34;44.50;;;29.43;;
21266;SDS011;10791;53.108;18.326;2022-10-16T05:31:38;41.13;;;26.67;;
21266;SDS011;10791;53.108;18.326;2022-10-16T05:36:41;44.53;;;28.50;;
21266;SDS011;10791;53.108;18.326;2022-10-16T05:41:44;41.20;;;26.43;;
21266;SDS011;10791;53.108;18.326;2022-10-16T05:46:48;39.03;;;26.13;;
21266;SDS011;10791;53.108;18.326;2022-10-16T05:51:51;35.13;;;24.43;;
21266;SDS011;10791;53.108;18.326;2022-10-16T05:56:54;37.97;;;24.47;;
21266;SDS011;10791;53.108;18.326;2022-10-16T06:01:57;36.77;;;25.00;;
21266;SDS011;10791;53.108;18.326;2022-10-16T06:07:00;35.13;;;23.13;;
21266;SDS011;10791;53.108;18.326;2022-10-16T06:12:03;36.17;;;24.33;;
21266;SDS011;10791;53.108;18.326;2022-10-16T06:17:07;33.40;;;22.77;;
21266;SDS011;10791;53.108;18.326;2022-10-16T06:22:10;30.63;;;22.53;;
21266;SDS011;10791;53.108;18.326;2022-10-16T06:27:13;32.83;;;23.97;;
21266;SDS011;10791;53.108;18.326;2022-10-16T06:32:17;29.43;;;22.07;;
21266;SDS011;10791;53.108;18.326;2022-10-16T06:37:20;28.20;;;21.63;;
21266;SDS011;10791;53.108;18.326;2022-10-16T06:42:24;28.80;;;21.10;;
21266;SDS011;10791;53.108;18.326;2022-10-16T06:47:28;30.57;;;21.83;;
21266;SDS011;10791;53.108;18.326;2022-10-16T06:52:31;32.90;;;22.27;;
21266;SDS011;10791;53.108;18.326;2022-10-16T06:57:34;27.70;;;19.77;;
21266;SDS011;10791;53.108;18.326;2022-10-16T07:02:38;26.47;;;19.90;;
21266;SDS011;10791;53.108;18.326;2022-10-16T07:07:41;26.33;;;18.93;;
21266;SDS011;10791;53.108;18.326;2022-10-16T07:12:44;23.90;;;17.20;;
21266;SDS011;10791;53.108;18.326;2022-10-16T07:17:47;24.37;;;17.43;;
21266;SDS011;10791;53.108;18.326;2022-10-16T07:22:51;24.17;;;16.93;;
21266;SDS011;10791;53.108;18.326;2022-10-16T07:27:54;25.40;;;19.30;;
21266;SDS011;10791;53.108;18.326;2022-10-16T07:32:58;23.40;;;17.23;;
21266;SDS011;10791;53.108;18.326;2022-10-16T07:38:01;21.20;;;16.40;;
21266;SDS011;10791;53.108;18.326;2022-10-16T07:43:04;23.23;;;15.97;;
21266;SDS011;10791;53.108;18.326;2022-10-16T07:48:07;21.60;;;15.87;;
21266;SDS011;10791;53.108;18.326;2022-10-16T07:53:11;20.43;;;15.03;;
21266;SDS011;10791;53.108;18.326;2022-10-16T07:58:17;18.13;;;13.23;;
21266;SDS011;10791;53.108;18.326;2022-10-16T08:03:21;17.23;;;13.43;;
21266;SDS011;10791;53.108;18.326;2022-10-16T08:08:25;16.23;;;12.70;;
21266;SDS011;10791;53.108;18.326;2022-10-16T08:13:29;18.15;;;11.38;;
21266;SDS011;10791;53.108;18.326;2022-10-16T08:18:33;17.00;;;13.15;;
21266;SDS011;10791;53.108;18.326;2022-10-16T08:23:38;16.83;;;13.48;;
21266;SDS011;10791;53.108;18.326;2022-10-16T08:28:41;20.00;;;12.57;;
21266;SDS011;10791;53.108;18.326;2022-10-16T08:33:46;18.20;;;12.02;;
21266;SDS011;10791;53.108;18.326;2022-10-16T08:38:50;15.20;;;12.13;;
21266;SDS011;10791;53.108;18.326;2022-10-16T08:49:13;13.70;;;11.45;;
21266;SDS011;10791;53.108;18.326;2022-10-16T08:59:23;13.48;;;10.85;;
21266;SDS011;10791;53.108;18.326;2022-10-16T09:25:35;12.32;;;9.13;;
21266;SDS011;10791;53.108;18.326;2022-10-16T09:30:38;10.27;;;8.63;;
21266;SDS011;10791;53.108;18.326;2022-10-16T09:35:46;9.50;;;8.10;;
21266;SDS011;10791;53.108;18.326;2022-10-16T09:40:54;11.35;;;8.90;;
21266;SDS011;10791;53.108;18.326;2022-10-16T09:46:05;8.82;;;7.82;;
21266;SDS011;10791;53.108;18.326;2022-10-16T09:51:16;10.63;;;7.85;;
21266;SDS011;10791;53.108;18.326;2022-10-16T09:56:32;8.90;;;7.97;;
21266;SDS011;10791;53.108;18.326;2022-10-16T10:01:42;10.43;;;8.32;;
21266;SDS011;10791;53.108;18.326;2022-10-16T10:11:55;10.55;;;8.48;;
21266;SDS011;10791;53.108;18.326;2022-10-16T10:22:18;11.40;;;7.55;;
21266;SDS011;10791;53.108;18.326;2022-10-16T10:27:32;11.18;;;7.55;;
21266;SDS011;10791;53.108;18.326;2022-10-16T10:32:44;7.07;;;6.15;;
21266;SDS011;10791;53.108;18.326;2022-10-16T10:37:58;10.95;;;6.90;;
21266;SDS011;10791;53.108;18.326;2022-10-16T10:49:01;6.50;;;5.00;;
21266;SDS011;10791;53.108;18.326;2022-10-16T10:59:34;8.50;;;5.00;;
21266;SDS011;10791;53.108;18.326;2022-10-16T11:04:50;5.88;;;4.95;;
21266;SDS011;10791;53.108;18.326;2022-10-16T11:10:43;5.75;;;5.15;;
21266;SDS011;10791;53.108;18.326;2022-10-16T11:15:36;7.43;;;5.13;;
21266;SDS011;10791;53.108;18.326;2022-10-16T11:20:43;6.07;;;4.85;;
21266;SDS011;10791;53.108;18.326;2022-10-16T11:25:53;5.93;;;5.18;;
21266;SDS011;10791;53.108;18.326;2022-10-16T11:41:43;6.43;;;4.43;;
21266;SDS011;10791;53.108;18.326;2022-10-16T11:46:58;6.65;;;4.32;;
21266;SDS011;10791;53.108;18.326;2022-10-16T11:52:59;7.43;;;4.13;;
21266;SDS011;10791;53.108;18.326;2022-10-16T12:09:36;7.68;;;4.63;;
21266;SDS011;10791;53.108;18.326;2022-10-16T12:14:44;7.95;;;5.18;;
21266;SDS011;10791;53.108;18.326;2022-10-16T12:30:28;7.25;;;6.55;;
21266;SDS011;10791;53.108;18.326;2022-10-16T12:35:43;6.53;;;5.30;;
21266;SDS011;10791;53.108;18.326;2022-10-16T12:41:24;10.73;;;6.25;;
21266;SDS011;10791;53.108;18.326;2022-10-16T12:52:27;6.53;;;5.43;;
21266;SDS011;10791;53.108;18.326;2022-10-16T13:03:20;8.02;;;5.25;;
21266;SDS011;10791;53.108;18.326;2022-10-16T13:08:39;7.00;;;5.45;;
21266;SDS011;10791;53.108;18.326;2022-10-16T13:19:27;7.43;;;5.85;;
21266;SDS011;10791;53.108;18.326;2022-10-16T13:30:19;6.28;;;5.10;;
21266;SDS011;10791;53.108;18.326;2022-10-16T13:35:32;6.00;;;5.28;;
21266;SDS011;10791;53.108;18.326;2022-10-16T13:40:55;7.13;;;5.63;;
21266;SDS011;10791;53.108;18.326;2022-10-16T13:46:05;6.20;;;5.28;;
21266;SDS011;10791;53.108;18.326;2022-10-16T13:51:17;5.47;;;4.80;;
21266;SDS011;10791;53.108;18.326;2022-10-16T13:56:21;6.10;;;5.10;;
21266;SDS011;10791;53.108;18.326;2022-10-16T14:01:31;6.78;;;5.22;;
21266;SDS011;10791;53.108;18.326;2022-10-16T14:06:40;7.68;;;5.90;;
21266;SDS011;10791;53.108;18.326;2022-10-16T14:11:46;5.95;;;5.22;;
21266;SDS011;10791;53.108;18.326;2022-10-16T14:16:54;8.55;;;5.65;;
21266;SDS011;10791;53.108;18.326;2022-10-16T14:21:58;6.72;;;5.68;;
21266;SDS011;10791;53.108;18.326;2022-10-16T14:27:20;9.85;;;7.90;;
21266;SDS011;10791;53.108;18.326;2022-10-16T14:32:34;11.35;;;8.32;;
21266;SDS011;10791;53.108;18.326;2022-10-16T14:37:37;12.52;;;8.02;;
21266;SDS011;10791;53.108;18.326;2022-10-16T14:42:42;15.50;;;8.95;;
21266;SDS011;10791;53.108;18.326;2022-10-16T14:47:48;13.23;;;9.20;;
21266;SDS011;10791;53.108;18.326;2022-10-16T14:52:57;10.10;;;7.68;;
21266;SDS011;10791;53.108;18.326;2022-10-16T14:58:01;9.50;;;7.22;;
21266;SDS011;10791;53.108;18.326;2022-10-16T15:03:05;8.18;;;7.18;;
21266;SDS011;10791;53.108;18.326;2022-10-16T15:08:08;9.95;;;8.25;;
21266;SDS011;10791;53.108;18.326;2022-10-16T15:13:12;14.10;;;9.07;;
21266;SDS011;10791;53.108;18.326;2022-10-16T15:18:16;15.38;;;10.73;;
21266;SDS011;10791;53.108;18.326;2022-10-16T15:23:22;12.80;;;9.80;;
21266;SDS011;10791;53.108;18.326;2022-10-16T15:28:30;15.10;;;10.15;;
21266;SDS011;10791;53.108;18.326;2022-10-16T15:33:33;10.48;;;9.10;;
21266;SDS011;10791;53.108;18.326;2022-10-16T15:38:41;14.82;;;11.48;;
21266;SDS011;10791;53.108;18.326;2022-10-16T15:43:44;13.18;;;11.02;;
21266;SDS011;10791;53.108;18.326;2022-10-16T15:48:51;13.88;;;10.82;;
21266;SDS011;10791;53.108;18.326;2022-10-16T15:53:59;21.27;;;14.30;;
21266;SDS011;10791;53.108;18.326;2022-10-16T15:59:04;20.42;;;14.13;;
21266;SDS011;10791;53.108;18.326;2022-10-16T16:04:08;15.73;;;11.57;;
21266;SDS011;10791;53.108;18.326;2022-10-16T16:09:21;15.15;;;11.10;;
21266;SDS011;10791;53.108;18.326;2022-10-16T16:14:24;13.38;;;11.00;;
21266;SDS011;10791;53.108;18.326;2022-10-16T16:19:30;17.17;;;11.07;;
21266;SDS011;10791;53.108;18.326;2022-10-16T16:24:34;19.92;;;11.52;;
21266;SDS011;10791;53.108;18.326;2022-10-16T16:29:37;19.50;;;13.88;;
21266;SDS011;10791;53.108;18.326;2022-10-16T16:34:41;31.10;;;20.77;;
21266;SDS011;10791;53.108;18.326;2022-10-16T16:39:44;20.75;;;15.57;;
21266;SDS011;10791;53.108;18.326;2022-10-16T16:44:49;23.47;;;14.67;;
21266;SDS011;10791;53.108;18.326;2022-10-16T16:49:54;22.20;;;15.00;;
21266;SDS011;10791;53.108;18.326;2022-10-16T16:54:58;24.97;;;16.57;;
21266;SDS011;10791;53.108;18.326;2022-10-16T17:00:02;24.17;;;16.97;;
21266;SDS011;10791;53.108;18.326;2022-10-16T17:05:06;14.63;;;11.73;;
21266;SDS011;10791;53.108;18.326;2022-10-16T17:10:10;16.37;;;11.53;;
21266;SDS011;10791;53.108;18.326;2022-10-16T17:15:15;15.47;;;11.40;;
21266;SDS011;10791;53.108;18.326;2022-10-16T17:20:18;21.93;;;12.00;;
21266;SDS011;10791;53.108;18.326;2022-10-16T17:25:23;29.50;;;14.50;;
21266;SDS011;10791;53.108;18.326;2022-10-16T17:30:30;18.77;;;12.80;;
21266;SDS011;10791;53.108;18.326;2022-10-16T17:35:37;18.37;;;12.67;;
21266;SDS011;10791;53.108;18.326;2022-10-16T17:40:51;22.03;;;15.90;;
21266;SDS011;10791;53.108;18.326;2022-10-16T17:45:56;41.63;;;18.37;;
21266;SDS011;10791;53.108;18.326;2022-10-16T17:51:02;29.03;;;14.73;;
21266;SDS011;10791;53.108;18.326;2022-10-16T17:56:09;25.37;;;16.80;;
21266;SDS011;10791;53.108;18.326;2022-10-16T18:01:20;32.77;;;15.27;;
21266;SDS011;10791;53.108;18.326;2022-10-16T18:06:26;30.20;;;16.87;;
21266;SDS011;10791;53.108;18.326;2022-10-16T18:11:33;38.50;;;17.30;;
21266;SDS011;10791;53.108;18.326;2022-10-16T18:16:43;23.30;;;16.17;;
21266;SDS011;10791;53.108;18.326;2022-10-16T18:21:47;22.43;;;16.70;;
21266;SDS011;10791;53.108;18.326;2022-10-16T18:26:53;45.23;;;20.37;;
21266;SDS011;10791;53.108;18.326;2022-10-16T18:31:58;28.07;;;18.70;;
21266;SDS011;10791;53.108;18.326;2022-10-16T18:37:03;30.07;;;15.73;;
21266;SDS011;10791;53.108;18.326;2022-10-16T18:42:07;30.40;;;18.03;;
21266;SDS011;10791;53.108;18.326;2022-10-16T18:47:12;27.50;;;16.23;;
21266;SDS011;10791;53.108;18.326;2022-10-16T18:52:16;35.23;;;18.20;;
21266;SDS011;10791;53.108;18.326;2022-10-16T18:57:21;23.40;;;16.60;;
21266;SDS011;10791;53.108;18.326;2022-10-16T19:02:26;29.43;;;21.00;;
21266;SDS011;10791;53.108;18.326;2022-10-16T19:07:32;55.60;;;34.27;;
21266;SDS011;10791;53.108;18.326;2022-10-16T19:12:37;197.93;;;88.27;;
21266;SDS011;10791;53.108;18.326;2022-10-16T19:17:45;94.30;;;43.60;;
21266;SDS011;10791;53.108;18.326;2022-10-16T19:22:52;48.90;;;32.70;;
21266;SDS011;10791;53.108;18.326;2022-10-16T19:28:01;81.53;;;43.13;;
21266;SDS011;10791;53.108;18.326;2022-10-16T19:33:09;79.40;;;44.97;;
21266;SDS011;10791;53.108;18.326;2022-10-16T19:38:13;59.20;;;34.93;;
21266;SDS011;10791;53.108;18.326;2022-10-16T19:43:17;41.63;;;28.83;;
21266;SDS011;10791;53.108;18.326;2022-10-16T19:48:21;50.20;;;29.40;;
21266;SDS011;10791;53.108;18.326;2022-10-16T19:53:24;41.33;;;26.90;;
21266;SDS011;10791;53.108;18.326;2022-10-16T19:58:31;67.10;;;31.97;;
21266;SDS011;10791;53.108;18.326;2022-10-16T20:03:34;82.13;;;39.07;;
21266;SDS011;10791;53.108;18.326;2022-10-16T20:08:40;83.17;;;40.20;;
21266;SDS011;10791;53.108;18.326;2022-10-16T20:13:46;79.00;;;36.87;;
21266;SDS011;10791;53.108;18.326;2022-10-16T20:18:51;72.40;;;33.13;;
21266;SDS011;10791;53.108;18.326;2022-10-16T20:23:55;81.73;;;33.70;;
21266;SDS011;10791;53.108;18.326;2022-10-16T20:29:00;75.97;;;31.27;;
21266;SDS011;10791;53.108;18.326;2022-10-16T20:34:05;55.10;;;30.77;;
21266;SDS011;10791;53.108;18.326;2022-10-16T20:39:10;50.77;;;28.70;;
21266;SDS011;10791;53.108;18.326;2022-10-16T20:44:15;45.70;;;27.40;;
21266;SDS011;10791;53.108;18.326;2022-10-16T20:49:21;37.97;;;21.97;;
21266;SDS011;10791;53.108;18.326;2022-10-16T20:54:43;34.13;;;20.20;;
21266;SDS011;10791;53.108;18.326;2022-10-16T20:59:47;27.87;;;17.13;;
21266;SDS011;10791;53.108;18.326;2022-10-16T21:04:52;26.87;;;18.50;;
21266;SDS011;10791;53.108;18.326;2022-10-16T21:09:56;32.30;;;19.73;;
21266;SDS011;10791;53.108;18.326;2022-10-16T21:15:00;38.63;;;20.17;;
21266;SDS011;10791;53.108;18.326;2022-10-16T21:20:18;30.40;;;17.17;;
21266;SDS011;10791;53.108;18.326;2022-10-16T21:25:22;30.67;;;14.87;;
21266;SDS011;10791;53.108;18.326;2022-10-16T21:30:27;21.97;;;15.13;;
21266;SDS011;10791;53.108;18.326;2022-10-16T21:35:31;22.83;;;15.13;;
21266;SDS011;10791;53.108;18.326;2022-10-16T21:40:38;30.00;;;17.00;;
21266;SDS011;10791;53.108;18.326;2022-10-16T21:45:41;28.27;;;17.00;;
21266;SDS011;10791;53.108;18.326;2022-10-16T21:50:48;34.23;;;18.33;;
21266;SDS011;10791;53.108;18.326;2022-10-16T21:55:51;26.83;;;16.30;;
21266;SDS011;10791;53.108;18.326;2022-10-16T22:00:54;30.73;;;16.40;;
21266;SDS011;10791;53.108;18.326;2022-10-16T22:12:33;38.13;;;18.03;;
21266;SDS011;10791;53.108;18.326;2022-10-16T22:17:37;47.77;;;23.63;;
21266;SDS011;10791;53.108;18.326;2022-10-16T22:22:41;70.93;;;30.00;;
21266;SDS011;10791;53.108;18.326;2022-10-16T22:27:44;52.77;;;21.30;;
21266;SDS011;10791;53.108;18.326;2022-10-16T22:32:47;41.90;;;17.57;;
21266;SDS011;10791;53.108;18.326;2022-10-16T22:37:50;30.60;;;16.70;;
21266;SDS011;10791;53.108;18.326;2022-10-16T22:42:54;57.17;;;21.33;;
21266;SDS011;10791;53.108;18.326;2022-10-16T22:47:59;42.50;;;19.57;;
21266;SDS011;10791;53.108;18.326;2022-10-16T22:53:03;36.23;;;16.77;;
21266;SDS011;10791;53.108;18.326;2022-10-16T22:58:06;28.40;;;14.80;;
21266;SDS011;10791;53.108;18.326;2022-10-16T23:03:10;24.40;;;15.47;;
21266;SDS011;10791;53.108;18.326;2022-10-16T23:08:13;27.50;;;14.80;;
21266;SDS011;10791;53.108;18.326;2022-10-16T23:13:17;28.70;;;17.57;;
21266;SDS011;10791;53.108;18.326;2022-10-16T23:18:20;34.83;;;18.87;;
21266;SDS011;10791;53.108;18.326;2022-10-16T23:23:23;36.20;;;19.27;;
21266;SDS011;10791;53.108;18.326;2022-10-16T23:28:27;34.53;;;18.97;;
21266;SDS011;10791;53.108;18.326;2022-10-16T23:33:31;34.73;;;20.03;;
21266;SDS011;10791;53.108;18.326;2022-10-16T23:38:35;30.43;;;17.53;;
21266;SDS011;10791;53.108;18.326;2022-10-16T23:43:38;30.20;;;17.60;;
21266;SDS011;10791;53.108;18.326;2022-10-16T23:48:41;29.53;;;17.40;;
21266;SDS011;10791;53.108;18.326;2022-10-16T23:53:45;25.03;;;15.40;;
21266;SDS011;10791;53.108;18.326;2022-10-16T23:58:49;23.47;;;14.00;;
